sensor_id;sensor_type;location;lat;lon;timestamp;pressure;altitude;pressure_sealevel;temperature;humidity
39773;BME280;25451;51.960;6.250;2023-04-06T00:00:08;101708.91;;;5.26;51.18
39773;BME280;25451;51.960;6.250;2023-04-06T00:02:34;101708.69;;;5.28;51.44
39773;BME280;25451;51.960;6.250;2023-04-06T00:05:00;101709.09;;;5.25;51.16
39773;BME280;25451;51.960;6.250;2023-04-06T00:07:25;101703.63;;;5.25;51.24
39773;BME280;25451;51.960;6.250;2023-04-06T00:09:51;101701.25;;;5.22;51.29
39773;BME280;25451;51.960;6.250;2023-04-06T00:12:16;101696.16;;;5.19;51.49
39773;BME280;25451;51.960;6.250;2023-04-06T00:14:42;101690.69;;;5.19;51.59
39773;BME280;25451;51.960;6.250;2023-04-06T00:17:07;101693.78;;;5.16;51.65
39773;BME280;25451;51.960;6.250;2023-04-06T00:19:33;101689.06;;;5.10;51.54
39773;BME280;25451;51.960;6.250;2023-04-06T00:21:58;101688.41;;;5.07;51.61
39773;BME280;25451;51.960;6.250;2023-04-06T00:24:23;101686.06;;;5.04;51.89
39773;BME280;25451;51.960;6.250;2023-04-06T00:26:49;101686.72;;;5.07;51.47
39773;BME280;25451;51.960;6.250;2023-04-06T00:29:14;101682.66;;;5.02;51.90
39773;BME280;25451;51.960;6.250;2023-04-06T00:31:40;101671.91;;;5.01;51.68
39773;BME280;25451;51.960;6.250;2023-04-06T00:34:05;101668.69;;;4.97;52.00
39773;BME280;25451;51.960;6.250;2023-04-06T00:36:31;101677.94;;;4.96;51.88
39773;BME280;25451;51.960;6.250;2023-04-06T00:38:56;101671.97;;;4.93;51.95
39773;BME280;25451;51.960;6.250;2023-04-06T00:41:22;101668.41;;;4.92;52.17
39773;BME280;25451;51.960;6.250;2023-04-06T00:43:47;101654.84;;;4.84;51.86
39773;BME280;25451;51.960;6.250;2023-04-06T00:46:12;101667.25;;;4.87;52.28
39773;BME280;25451;51.960;6.250;2023-04-06T00:48:38;101654.53;;;4.79;52.20
39773;BME280;25451;51.960;6.250;2023-04-06T00:51:04;101666.78;;;4.83;52.06
39773;BME280;25451;51.960;6.250;2023-04-06T00:53:29;101667.19;;;4.80;52.00
39773;BME280;25451;51.960;6.250;2023-04-06T00:55:55;101643.88;;;4.70;52.07
39773;BME280;25451;51.960;6.250;2023-04-06T00:58:20;101660.19;;;4.78;52.21
39773;BME280;25451;51.960;6.250;2023-04-06T01:00:46;101654.25;;;4.74;52.28
39773;BME280;25451;51.960;6.250;2023-04-06T01:03:11;101647.44;;;4.70;52.17
39773;BME280;25451;51.960;6.250;2023-04-06T01:05:36;101642.34;;;4.67;52.20
39773;BME280;25451;51.960;6.250;2023-04-06T01:08:06;101641.31;;;4.68;52.28
39773;BME280;25451;51.960;6.250;2023-04-06T01:10:31;101631.09;;;4.62;52.48
39773;BME280;25451;51.960;6.250;2023-04-06T01:12:56;101634.03;;;4.61;52.44
39773;BME280;25451;51.960;6.250;2023-04-06T01:15:22;101629.97;;;4.57;52.63
39773;BME280;25451;51.960;6.250;2023-04-06T01:17:48;101606.88;;;4.45;52.84
39773;BME280;25451;51.960;6.250;2023-04-06T01:20:13;101625.91;;;4.53;52.71
39773;BME280;25451;51.960;6.250;2023-04-06T01:22:39;101633.09;;;4.54;52.65
39773;BME280;25451;51.960;6.250;2023-04-06T01:25:05;101625.44;;;4.49;52.52
39773;BME280;25451;51.960;6.250;2023-04-06T01:27:30;101628.00;;;4.51;52.62
39773;BME280;25451;51.960;6.250;2023-04-06T01:29:56;101624.13;;;4.45;52.54
39773;BME280;25451;51.960;6.250;2023-04-06T01:32:21;101622.41;;;4.44;52.58
39773;BME280;25451;51.960;6.250;2023-04-06T01:34:46;101610.34;;;4.39;52.46
39773;BME280;25451;51.960;6.250;2023-04-06T01:37:12;101608.09;;;4.42;52.63
39773;BME280;25451;51.960;6.250;2023-04-06T01:39:37;101601.28;;;4.38;52.81
39773;BME280;25451;51.960;6.250;2023-04-06T01:42:02;101611.41;;;4.38;52.83
39773;BME280;25451;51.960;6.250;2023-04-06T01:44:28;101599.50;;;4.31;52.70
39773;BME280;25451;51.960;6.250;2023-04-06T01:46:55;101604.59;;;4.34;52.71
39773;BME280;25451;51.960;6.250;2023-04-06T01:49:21;101604.09;;;4.30;52.67
39773;BME280;25451;51.960;6.250;2023-04-06T01:51:47;101595.97;;;4.22;52.83
39773;BME280;25451;51.960;6.250;2023-04-06T01:54:12;101607.22;;;4.27;52.90
39773;BME280;25451;51.960;6.250;2023-04-06T01:56:37;101595.97;;;4.22;52.98
39773;BME280;25451;51.960;6.250;2023-04-06T01:59:02;101595.50;;;4.18;52.93
39773;BME280;25451;51.960;6.250;2023-04-06T02:01:28;101600.13;;;4.18;52.94
39773;BME280;25451;51.960;6.250;2023-04-06T02:03:53;101592.31;;;4.15;52.99
39773;BME280;25451;51.960;6.250;2023-04-06T02:06:19;101588.25;;;4.11;53.28
39773;BME280;25451;51.960;6.250;2023-04-06T02:08:44;101597.09;;;4.13;53.05
39773;BME280;25451;51.960;6.250;2023-04-06T02:11:09;101588.91;;;4.13;53.23
39773;BME280;25451;51.960;6.250;2023-04-06T02:13:35;101593.72;;;4.11;53.18
39773;BME280;25451;51.960;6.250;2023-04-06T02:16:00;101590.66;;;4.06;53.13
39773;BME280;25451;51.960;6.250;2023-04-06T02:18:27;101588.59;;;4.08;53.21
39773;BME280;25451;51.960;6.250;2023-04-06T02:20:53;101573.31;;;3.99;53.03
39773;BME280;25451;51.960;6.250;2023-04-06T02:23:18;101579.72;;;4.06;53.40
39773;BME280;25451;51.960;6.250;2023-04-06T02:25:44;101576.41;;;3.96;53.41
39773;BME280;25451;51.960;6.250;2023-04-06T02:28:09;101585.59;;;4.03;53.33
39773;BME280;25451;51.960;6.250;2023-04-06T02:30:35;101577.94;;;3.98;53.53
39773;BME280;25451;51.960;6.250;2023-04-06T02:33:01;101578.78;;;3.99;53.40
39773;BME280;25451;51.960;6.250;2023-04-06T02:35:28;101574.34;;;3.98;53.49
39773;BME280;25451;51.960;6.250;2023-04-06T02:37:53;101576.41;;;3.96;53.18
39773;BME280;25451;51.960;6.250;2023-04-06T02:40:18;101570.28;;;3.94;53.44
39773;BME280;25451;51.960;6.250;2023-04-06T02:42:44;101570.66;;;3.91;53.50
39773;BME280;25451;51.960;6.250;2023-04-06T02:45:09;101566.41;;;3.88;53.59
39773;BME280;25451;51.960;6.250;2023-04-06T02:47:34;101559.13;;;3.81;53.57
39773;BME280;25451;51.960;6.250;2023-04-06T02:50:00;101575.47;;;3.89;53.65
39773;BME280;25451;51.960;6.250;2023-04-06T02:52:25;101560.81;;;3.82;53.75
39773;BME280;25451;51.960;6.250;2023-04-06T02:54:51;101566.09;;;3.83;53.77
39773;BME280;25451;51.960;6.250;2023-04-06T02:57:16;101548.56;;;3.78;53.59
39773;BME280;25451;51.960;6.250;2023-04-06T02:59:42;101570.53;;;3.84;53.83
39773;BME280;25451;51.960;6.250;2023-04-06T03:02:07;101559.78;;;3.83;53.87
39773;BME280;25451;51.960;6.250;2023-04-06T03:04:32;101561.03;;;3.80;53.96
39773;BME280;25451;51.960;6.250;2023-04-06T03:06:58;101560.81;;;3.82;53.77
39773;BME280;25451;51.960;6.250;2023-04-06T03:09:23;101547.38;;;3.80;53.88
39773;BME280;25451;51.960;6.250;2023-04-06T03:11:48;101548.94;;;3.75;53.88
39773;BME280;25451;51.960;6.250;2023-04-06T03:14:13;101548.56;;;3.78;53.93
39773;BME280;25451;51.960;6.250;2023-04-06T03:16:39;101556.28;;;3.74;53.86
39773;BME280;25451;51.960;6.250;2023-04-06T03:19:05;101540.44;;;3.70;54.19
39773;BME280;25451;51.960;6.250;2023-04-06T03:21:30;101548.09;;;3.74;54.12
39773;BME280;25451;51.960;6.250;2023-04-06T03:23:55;101543.84;;;3.72;54.08
39773;BME280;25451;51.960;6.250;2023-04-06T03:26:20;101528.19;;;3.66;54.13
39773;BME280;25451;51.960;6.250;2023-04-06T03:28:47;101544.72;;;3.72;54.04
39773;BME280;25451;51.960;6.250;2023-04-06T03:31:12;101539.59;;;3.69;54.06
39773;BME280;25451;51.960;6.250;2023-04-06T03:33:37;101525.47;;;3.66;54.09
39773;BME280;25451;51.960;6.250;2023-04-06T03:36:03;101536.00;;;3.69;54.08
39773;BME280;25451;51.960;6.250;2023-04-06T03:38:29;101537.06;;;3.68;54.18
39773;BME280;25451;51.960;6.250;2023-04-06T03:40:54;101527.06;;;3.60;53.87
39773;BME280;25451;51.960;6.250;2023-04-06T03:43:19;101529.22;;;3.65;54.20
39773;BME280;25451;51.960;6.250;2023-04-06T03:45:45;101521.28;;;3.55;54.16
39773;BME280;25451;51.960;6.250;2023-04-06T03:48:10;101528.19;;;3.66;54.25
39773;BME280;25451;51.960;6.250;2023-04-06T03:50:35;101527.72;;;3.62;54.22
39773;BME280;25451;51.960;6.250;2023-04-06T03:53:01;101526.00;;;3.61;54.29
39773;BME280;25451;51.960;6.250;2023-04-06T03:55:29;101532.53;;;3.60;54.25
39773;BME280;25451;51.960;6.250;2023-04-06T03:57:54;101523.81;;;3.57;54.44
39773;BME280;25451;51.960;6.250;2023-04-06T04:00:20;101524.69;;;3.57;54.54
39773;BME280;25451;51.960;6.250;2023-04-06T04:02:45;101512.81;;;3.50;54.28
39773;BME280;25451;51.960;6.250;2023-04-06T04:05:10;101528.47;;;3.56;54.70
39773;BME280;25451;51.960;6.250;2023-04-06T04:07:35;101525.72;;;3.56;54.36
39773;BME280;25451;51.960;6.250;2023-04-06T04:10:01;101527.59;;;3.56;54.21
39773;BME280;25451;51.960;6.250;2023-04-06T04:12:26;101534.75;;;3.57;54.44
39773;BME280;25451;51.960;6.250;2023-04-06T04:14:51;101540.38;;;3.55;54.59
39773;BME280;25451;51.960;6.250;2023-04-06T04:17:17;101535.97;;;3.54;54.66
39773;BME280;25451;51.960;6.250;2023-04-06T04:19:42;101533.59;;;3.51;54.40
39773;BME280;25451;51.960;6.250;2023-04-06T04:22:07;101539.91;;;3.52;54.50
39773;BME280;25451;51.960;6.250;2023-04-06T04:24:32;101531.06;;;3.50;54.44
39773;BME280;25451;51.960;6.250;2023-04-06T04:26:59;101535.84;;;3.48;54.65
39773;BME280;25451;51.960;6.250;2023-04-06T04:29:26;101528.88;;;3.45;54.69
39773;BME280;25451;51.960;6.250;2023-04-06T04:31:51;101523.59;;;3.44;54.63
39773;BME280;25451;51.960;6.250;2023-04-06T04:34:17;101519.22;;;3.34;54.89
39773;BME280;25451;51.960;6.250;2023-04-06T04:36:45;101527.72;;;3.40;54.56
39773;BME280;25451;51.960;6.250;2023-04-06T04:39:10;101535.53;;;3.43;54.81
39773;BME280;25451;51.960;6.250;2023-04-06T04:41:36;101524.47;;;3.36;54.65
39773;BME280;25451;51.960;6.250;2023-04-06T04:44:01;101532.50;;;3.38;54.81
39773;BME280;25451;51.960;6.250;2023-04-06T04:46:27;101531.47;;;3.38;55.04
39773;BME280;25451;51.960;6.250;2023-04-06T04:48:52;101532.50;;;3.38;54.45
39773;BME280;25451;51.960;6.250;2023-04-06T04:51:17;101530.97;;;3.35;54.79
39773;BME280;25451;51.960;6.250;2023-04-06T04:53:43;101517.59;;;3.25;54.80
39773;BME280;25451;51.960;6.250;2023-04-06T04:56:08;101524.84;;;3.33;55.15
39773;BME280;25451;51.960;6.250;2023-04-06T04:58:33;101523.00;;;3.33;55.02
39773;BME280;25451;51.960;6.250;2023-04-06T05:00:58;101523.53;;;3.29;54.79
39773;BME280;25451;51.960;6.250;2023-04-06T05:03:27;101528.13;;;3.28;55.09
39773;BME280;25451;51.960;6.250;2023-04-06T05:05:52;101525.59;;;3.27;55.13
39773;BME280;25451;51.960;6.250;2023-04-06T05:08:18;101512.66;;;3.21;55.16
39773;BME280;25451;51.960;6.250;2023-04-06T05:10:43;101518.78;;;3.23;54.88
39773;BME280;25451;51.960;6.250;2023-04-06T05:13:10;101520.31;;;3.25;55.21
39773;BME280;25451;51.960;6.250;2023-04-06T05:15:35;101527.25;;;3.28;55.41
39773;BME280;25451;51.960;6.250;2023-04-06T05:18:04;101523.72;;;3.27;55.01
39773;BME280;25451;51.960;6.250;2023-04-06T05:20:29;101519.47;;;3.25;55.03
39773;BME280;25451;51.960;6.250;2023-04-06T05:22:54;101520.97;;;3.27;55.03
39773;BME280;25451;51.960;6.250;2023-04-06T05:25:20;101531.50;;;3.30;55.20
39773;BME280;25451;51.960;6.250;2023-04-06T05:27:45;101518.25;;;3.27;54.97
39773;BME280;25451;51.960;6.250;2023-04-06T05:30:10;101523.34;;;3.30;55.40
39773;BME280;25451;51.960;6.250;2023-04-06T05:32:36;101523.81;;;3.34;55.16
39773;BME280;25451;51.960;6.250;2023-04-06T05:35:01;101516.47;;;3.34;55.14
39773;BME280;25451;51.960;6.250;2023-04-06T05:37:27;101518.88;;;3.38;55.27
39773;BME280;25451;51.960;6.250;2023-04-06T05:39:52;101521.41;;;3.39;55.10
39773;BME280;25451;51.960;6.250;2023-04-06T05:42:17;101515.56;;;3.42;55.02
39773;BME280;25451;51.960;6.250;2023-04-06T05:44:43;101511.16;;;3.41;54.94
39773;BME280;25451;51.960;6.250;2023-04-06T05:47:08;101507.88;;;3.46;55.08
39773;BME280;25451;51.960;6.250;2023-04-06T05:49:33;101509.41;;;3.48;55.34
39773;BME280;25451;51.960;6.250;2023-04-06T05:51:59;101517.22;;;3.51;55.18
39773;BME280;25451;51.960;6.250;2023-04-06T05:54:25;101516.69;;;3.56;55.09
39773;BME280;25451;51.960;6.250;2023-04-06T05:56:50;101517.16;;;3.59;55.29
39773;BME280;25451;51.960;6.250;2023-04-06T05:59:15;101505.69;;;3.64;55.22
39773;BME280;25451;51.960;6.250;2023-04-06T06:01:41;101513.50;;;3.67;55.00
39773;BME280;25451;51.960;6.250;2023-04-06T06:04:06;101505.81;;;3.70;55.16
39773;BME280;25451;51.960;6.250;2023-04-06T06:06:31;101513.94;;;3.78;55.09
39773;BME280;25451;51.960;6.250;2023-04-06T06:08:57;101513.38;;;3.83;55.19
39773;BME280;25451;51.960;6.250;2023-04-06T06:11:26;101516.06;;;3.91;54.73
39773;BME280;25451;51.960;6.250;2023-04-06T06:13:52;101509.00;;;3.96;54.76
39773;BME280;25451;51.960;6.250;2023-04-06T06:16:18;101500.25;;;4.01;55.10
39773;BME280;25451;51.960;6.250;2023-04-06T06:18:44;101518.03;;;4.11;54.74
39773;BME280;25451;51.960;6.250;2023-04-06T06:21:10;101519.00;;;4.18;54.82
39773;BME280;25451;51.960;6.250;2023-04-06T06:23:37;101520.81;;;4.26;54.79
39773;BME280;25451;51.960;6.250;2023-04-06T06:26:02;101523.84;;;4.31;54.82
39773;BME280;25451;51.960;6.250;2023-04-06T06:28:28;101517.44;;;4.39;54.61
39773;BME280;25451;51.960;6.250;2023-04-06T06:30:53;101505.53;;;4.46;54.40
39773;BME280;25451;51.960;6.250;2023-04-06T06:33:18;101507.34;;;4.54;54.61
39773;BME280;25451;51.960;6.250;2023-04-06T06:35:44;101505.34;;;4.62;54.46
39773;BME280;25451;51.960;6.250;2023-04-06T06:38:09;101515.16;;;4.71;54.57
39773;BME280;25451;51.960;6.250;2023-04-06T06:40:34;101507.63;;;4.73;54.51
39773;BME280;25451;51.960;6.250;2023-04-06T06:43:00;101525.22;;;4.85;54.42
39773;BME280;25451;51.960;6.250;2023-04-06T06:45:25;101519.00;;;4.91;54.26
39773;BME280;25451;51.960;6.250;2023-04-06T06:47:51;101500.81;;;4.98;54.86
39773;BME280;25451;51.960;6.250;2023-04-06T06:50:16;101518.00;;;5.14;54.75
39773;BME280;25451;51.960;6.250;2023-04-06T06:52:42;101503.09;;;5.16;54.70
39773;BME280;25451;51.960;6.250;2023-04-06T06:55:09;101504.03;;;5.23;54.43
39773;BME280;25451;51.960;6.250;2023-04-06T06:57:34;101518.31;;;5.40;54.64
39773;BME280;25451;51.960;6.250;2023-04-06T07:00:00;101514.41;;;5.49;54.25
39773;BME280;25451;51.960;6.250;2023-04-06T07:02:25;101506.66;;;5.52;54.48
39773;BME280;25451;51.960;6.250;2023-04-06T07:04:50;101517.09;;;5.63;54.80
39773;BME280;25451;51.960;6.250;2023-04-06T07:07:16;101506.88;;;5.72;54.26
39773;BME280;25451;51.960;6.250;2023-04-06T07:09:41;101512.19;;;5.80;54.65
39773;BME280;25451;51.960;6.250;2023-04-06T07:12:06;101513.31;;;5.85;54.90
39773;BME280;25451;51.960;6.250;2023-04-06T07:14:32;101508.16;;;5.97;54.59
39773;BME280;25451;51.960;6.250;2023-04-06T07:16:57;101502.66;;;5.97;54.84
39773;BME280;25451;51.960;6.250;2023-04-06T07:19:22;101482.47;;;5.98;54.86
39773;BME280;25451;51.960;6.250;2023-04-06T07:21:48;101495.28;;;6.19;54.83
39773;BME280;25451;51.960;6.250;2023-04-06T07:24:15;101491.09;;;6.23;55.14
39773;BME280;25451;51.960;6.250;2023-04-06T07:26:40;101495.59;;;6.37;54.68
39773;BME280;25451;51.960;6.250;2023-04-06T07:29:05;101489.09;;;6.44;54.72
39773;BME280;25451;51.960;6.250;2023-04-06T07:31:31;101478.19;;;6.51;54.40
39773;BME280;25451;51.960;6.250;2023-04-06T07:33:56;101487.97;;;6.66;54.68
39773;BME280;25451;51.960;6.250;2023-04-06T07:36:22;101477.63;;;6.68;54.16
39773;BME280;25451;51.960;6.250;2023-04-06T07:38:47;101488.25;;;6.85;54.70
39773;BME280;25451;51.960;6.250;2023-04-06T07:41:13;101481.31;;;6.89;54.59
39773;BME280;25451;51.960;6.250;2023-04-06T07:43:39;101493.63;;;7.06;54.52
39773;BME280;25451;51.960;6.250;2023-04-06T07:46:04;101481.41;;;7.15;54.68
39773;BME280;25451;51.960;6.250;2023-04-06T07:48:30;101474.88;;;7.16;54.86
39773;BME280;25451;51.960;6.250;2023-04-06T07:51:02;101481.06;;;7.31;54.96
39773;BME280;25451;51.960;6.250;2023-04-06T07:53:27;101477.91;;;7.40;54.34
39773;BME280;25451;51.960;6.250;2023-04-06T07:55:53;101476.84;;;7.48;54.96
39773;BME280;25451;51.960;6.250;2023-04-06T07:58:18;101480.66;;;7.60;54.65
39773;BME280;25451;51.960;6.250;2023-04-06T08:00:44;101473.06;;;7.69;54.81
39773;BME280;25451;51.960;6.250;2023-04-06T08:03:09;101486.19;;;7.86;54.46
39773;BME280;25451;51.960;6.250;2023-04-06T08:05:34;101480.69;;;7.93;55.02
39773;BME280;25451;51.960;6.250;2023-04-06T08:08:00;101492.97;;;8.10;54.44
39773;BME280;25451;51.960;6.250;2023-04-06T08:10:25;101488.72;;;8.20;54.79
39773;BME280;25451;51.960;6.250;2023-04-06T08:12:52;101491.72;;;8.32;54.73
39773;BME280;25451;51.960;6.250;2023-04-06T08:15:17;101483.00;;;8.42;54.30
39773;BME280;25451;51.960;6.250;2023-04-06T08:17:43;101472.41;;;8.52;54.19
39773;BME280;25451;51.960;6.250;2023-04-06T08:20:08;101477.25;;;8.63;54.10
39773;BME280;25451;51.960;6.250;2023-04-06T08:22:34;101486.94;;;8.78;54.68
39773;BME280;25451;51.960;6.250;2023-04-06T08:24:59;101477.56;;;8.86;54.36
39773;BME280;25451;51.960;6.250;2023-04-06T08:27:25;101477.13;;;8.95;54.64
39773;BME280;25451;51.960;6.250;2023-04-06T08:29:50;101479.63;;;9.10;53.98
39773;BME280;25451;51.960;6.250;2023-04-06T08:32:16;101470.03;;;9.19;54.04
39773;BME280;25451;51.960;6.250;2023-04-06T08:34:42;101478.41;;;9.31;53.95
39773;BME280;25451;51.960;6.250;2023-04-06T08:37:07;101476.66;;;9.43;53.88
39773;BME280;25451;51.960;6.250;2023-04-06T08:39:32;101467.94;;;9.52;54.04
39773;BME280;25451;51.960;6.250;2023-04-06T08:41:59;101471.41;;;9.66;53.77
39773;BME280;25451;51.960;6.250;2023-04-06T08:44:26;101464.41;;;9.70;53.48
39773;BME280;25451;51.960;6.250;2023-04-06T08:46:51;101462.22;;;9.78;53.71
39773;BME280;25451;51.960;6.250;2023-04-06T08:49:17;101465.53;;;9.87;53.42
39773;BME280;25451;51.960;6.250;2023-04-06T08:51:43;101460.41;;;9.90;53.53
39773;BME280;25451;51.960;6.250;2023-04-06T08:54:09;101463.13;;;9.97;53.46
39773;BME280;25451;51.960;6.250;2023-04-06T08:56:38;101456.94;;;10.01;53.69
39773;BME280;25451;51.960;6.250;2023-04-06T08:59:04;101455.41;;;10.06;53.40
39773;BME280;25451;51.960;6.250;2023-04-06T09:01:30;101460.69;;;10.14;53.51
39773;BME280;25451;51.960;6.250;2023-04-06T09:03:58;101456.41;;;10.18;53.40
39773;BME280;25451;51.960;6.250;2023-04-06T09:06:24;101463.16;;;10.22;53.31
39773;BME280;25451;51.960;6.250;2023-04-06T09:08:50;101464.38;;;10.26;53.26
39773;BME280;25451;51.960;6.250;2023-04-06T09:11:15;101457.78;;;10.27;53.20
39773;BME280;25451;51.960;6.250;2023-04-06T09:13:45;101461.31;;;10.34;53.26
39773;BME280;25451;51.960;6.250;2023-04-06T09:16:11;101448.59;;;10.33;53.14
39773;BME280;25451;51.960;6.250;2023-04-06T09:18:36;101460.34;;;10.46;53.11
39773;BME280;25451;51.960;6.250;2023-04-06T09:21:03;101452.44;;;10.50;53.08
39773;BME280;25451;51.960;6.250;2023-04-06T09:23:29;101449.16;;;10.59;52.78
39773;BME280;25451;51.960;6.250;2023-04-06T09:26:12;101451.16;;;10.70;52.90
39773;BME280;25451;51.960;6.250;2023-04-06T09:28:44;101451.53;;;10.74;52.84
39773;BME280;25451;51.960;6.250;2023-04-06T09:31:11;101461.94;;;10.90;52.74
39773;BME280;25451;51.960;6.250;2023-04-06T09:33:38;101449.38;;;10.94;52.55
39773;BME280;25451;51.960;6.250;2023-04-06T09:36:03;101448.81;;;11.04;52.65
39773;BME280;25451;51.960;6.250;2023-04-06T09:38:29;101451.84;;;11.14;52.61
39773;BME280;25451;51.960;6.250;2023-04-06T09:40:54;101451.69;;;11.27;52.42
39773;BME280;25451;51.960;6.250;2023-04-06T09:43:26;101452.34;;;11.40;52.52
39773;BME280;25451;51.960;6.250;2023-04-06T09:45:52;101444.31;;;11.50;52.44
39773;BME280;25451;51.960;6.250;2023-04-06T09:48:19;101453.91;;;11.66;52.22
39773;BME280;25451;51.960;6.250;2023-04-06T09:50:46;101455.63;;;11.79;52.26
39773;BME280;25451;51.960;6.250;2023-04-06T09:53:12;101452.88;;;11.90;52.35
39773;BME280;25451;51.960;6.250;2023-04-06T09:55:42;101450.34;;;12.00;52.23
39773;BME280;25451;51.960;6.250;2023-04-06T09:58:16;101436.88;;;12.04;52.08
39773;BME280;25451;51.960;6.250;2023-04-06T10:01:10;101447.22;;;12.20;51.84
39773;BME280;25451;51.960;6.250;2023-04-06T10:03:45;101448.06;;;12.32;51.45
39773;BME280;25451;51.960;6.250;2023-04-06T10:06:14;101446.63;;;12.41;51.71
39773;BME280;25451;51.960;6.250;2023-04-06T10:08:42;101437.97;;;12.49;51.58
39773;BME280;25451;51.960;6.250;2023-04-06T10:11:10;101439.28;;;12.58;51.37
39773;BME280;25451;51.960;6.250;2023-04-06T10:13:36;101440.84;;;12.66;51.57
39773;BME280;25451;51.960;6.250;2023-04-06T10:16:01;101440.72;;;12.72;51.20
39773;BME280;25451;51.960;6.250;2023-04-06T10:18:27;101442.59;;;12.83;51.24
39773;BME280;25451;51.960;6.250;2023-04-06T10:21:01;101442.22;;;12.91;51.03
39773;BME280;25451;51.960;6.250;2023-04-06T10:23:41;101444.84;;;12.98;51.08
39773;BME280;25451;51.960;6.250;2023-04-06T10:26:14;101444.75;;;13.04;50.75
39773;BME280;25451;51.960;6.250;2023-04-06T10:28:41;101441.25;;;13.09;50.52
39773;BME280;25451;51.960;6.250;2023-04-06T10:31:07;101437.25;;;13.16;50.63
39773;BME280;25451;51.960;6.250;2023-04-06T10:33:32;101447.34;;;13.22;50.53
39773;BME280;25451;51.960;6.250;2023-04-06T10:36:20;101451.88;;;13.28;50.54
39773;BME280;25451;51.960;6.250;2023-04-06T10:38:46;101439.69;;;13.29;50.73
39773;BME280;25451;51.960;6.250;2023-04-06T10:41:11;101453.19;;;13.38;50.36
39773;BME280;25451;51.960;6.250;2023-04-06T10:43:41;101451.59;;;13.42;50.18
39773;BME280;25451;51.960;6.250;2023-04-06T10:46:08;101443.88;;;13.44;50.20
39773;BME280;25451;51.960;6.250;2023-04-06T10:48:45;101444.22;;;13.47;49.76
39773;BME280;25451;51.960;6.250;2023-04-06T10:51:16;101453.22;;;13.54;50.17
39773;BME280;25451;51.960;6.250;2023-04-06T10:53:43;101434.91;;;13.53;50.03
39773;BME280;25451;51.960;6.250;2023-04-06T10:56:10;101447.63;;;13.66;50.10
39773;BME280;25451;51.960;6.250;2023-04-06T10:58:36;101451.31;;;13.71;49.81
39773;BME280;25451;51.960;6.250;2023-04-06T11:01:02;101443.09;;;13.76;49.77
39773;BME280;25451;51.960;6.250;2023-04-06T11:03:28;101437.88;;;13.80;49.71
39773;BME280;25451;51.960;6.250;2023-04-06T11:05:53;101446.88;;;13.87;49.58
39773;BME280;25451;51.960;6.250;2023-04-06T11:08:26;101451.66;;;13.91;49.55
39773;BME280;25451;51.960;6.250;2023-04-06T11:11:10;101445.63;;;13.94;49.32
39773;BME280;25451;51.960;6.250;2023-04-06T11:13:55;101436.28;;;14.00;49.23
39773;BME280;25451;51.960;6.250;2023-04-06T11:16:23;101446.63;;;14.05;49.24
39773;BME280;25451;51.960;6.250;2023-04-06T11:18:50;101442.25;;;14.09;49.13
39773;BME280;25451;51.960;6.250;2023-04-06T11:21:16;101452.34;;;14.15;48.93
39773;BME280;25451;51.960;6.250;2023-04-06T11:23:41;101441.22;;;14.15;48.90
39773;BME280;25451;51.960;6.250;2023-04-06T11:26:13;101442.44;;;14.19;48.65
39773;BME280;25451;51.960;6.250;2023-04-06T11:28:41;101444.94;;;14.21;48.64
39773;BME280;25451;51.960;6.250;2023-04-06T11:31:09;101443.84;;;14.22;48.32
39773;BME280;25451;51.960;6.250;2023-04-06T11:33:38;101430.75;;;14.17;48.24
39773;BME280;25451;51.960;6.250;2023-04-06T11:36:04;101437.19;;;14.23;48.43
39773;BME280;25451;51.960;6.250;2023-04-06T11:38:30;101440.56;;;14.25;48.36
39773;BME280;25451;51.960;6.250;2023-04-06T11:40:56;101434.44;;;14.23;48.23
39773;BME280;25451;51.960;6.250;2023-04-06T11:43:29;101443.09;;;14.26;48.15
39773;BME280;25451;51.960;6.250;2023-04-06T11:46:02;101434.50;;;14.28;48.40
39773;BME280;25451;51.960;6.250;2023-04-06T11:48:28;101421.81;;;14.32;48.28
39773;BME280;25451;51.960;6.250;2023-04-06T11:50:57;101430.50;;;14.35;48.33
39773;BME280;25451;51.960;6.250;2023-04-06T11:53:23;101425.53;;;14.37;48.46
39773;BME280;25451;51.960;6.250;2023-04-06T11:55:49;101413.31;;;14.38;48.46
39773;BME280;25451;51.960;6.250;2023-04-06T11:58:14;101417.56;;;14.46;48.44
39773;BME280;25451;51.960;6.250;2023-04-06T12:00:40;101420.44;;;14.51;48.53
39773;BME280;25451;51.960;6.250;2023-04-06T12:03:10;101414.13;;;14.55;48.17
39773;BME280;25451;51.960;6.250;2023-04-06T12:05:35;101418.66;;;14.61;47.99
39773;BME280;25451;51.960;6.250;2023-04-06T12:08:00;101422.31;;;14.67;48.05
39773;BME280;25451;51.960;6.250;2023-04-06T12:10:26;101421.56;;;14.71;48.19
39773;BME280;25451;51.960;6.250;2023-04-06T12:12:51;101422.72;;;14.75;47.95
39773;BME280;25451;51.960;6.250;2023-04-06T12:15:16;101425.06;;;14.83;48.09
39773;BME280;25451;51.960;6.250;2023-04-06T12:17:42;101420.66;;;14.87;48.02
39773;BME280;25451;51.960;6.250;2023-04-06T12:20:07;101423.50;;;14.92;48.30
39773;BME280;25451;51.960;6.250;2023-04-06T12:22:33;101412.94;;;14.94;48.25
39773;BME280;25451;51.960;6.250;2023-04-06T12:24:58;101427.81;;;15.05;48.16
39773;BME280;25451;51.960;6.250;2023-04-06T12:27:24;101416.69;;;15.05;48.04
39773;BME280;25451;51.960;6.250;2023-04-06T12:29:50;101425.13;;;15.10;48.14
39773;BME280;25451;51.960;6.250;2023-04-06T12:32:15;101426.78;;;15.11;48.01
39773;BME280;25451;51.960;6.250;2023-04-06T12:34:42;101411.03;;;15.17;48.14
39773;BME280;25451;51.960;6.250;2023-04-06T12:37:07;101412.09;;;15.16;48.12
39773;BME280;25451;51.960;6.250;2023-04-06T12:39:33;101422.75;;;15.24;48.09
39773;BME280;25451;51.960;6.250;2023-04-06T12:41:58;101419.47;;;15.27;48.10
39773;BME280;25451;51.960;6.250;2023-04-06T12:44:23;101422.50;;;15.25;48.36
39773;BME280;25451;51.960;6.250;2023-04-06T12:46:49;101402.03;;;15.10;48.65
39773;BME280;25451;51.960;6.250;2023-04-06T12:49:15;101419.41;;;15.22;48.58
39773;BME280;25451;51.960;6.250;2023-04-06T12:51:42;101421.59;;;15.20;48.59